KDSM/DSM METAR and TAF weather

Enter ICAO airport designator
Station Type Date Time Source
KDSM METAR 2020/07/05 02:54 UTC NOAA

KDSM 050254Z 11004KT 8SM SCT250 28/18 A2998 RMK AO2 SLP143 T02780178 53005


Station Type Date Time Source
KDSM Decoded METAR 2020/07/05 02:54 UTC NOAA

DES MOINES INTERNATIONAL, IA, United States (KDSM) 41-32N 93-40W 295M
Jul 04, 2020 - 10:54 PM EDT / 2020.07.05 0254 UTC
Wind: from the ESE (110 degrees) at 5 MPH (4 KT):0
Visibility: 8 mile(s):0
Sky conditions: partly cloudy
Temperature: 82.0 F (27.8 C)
Dew Point: 64.0 F (17.8 C)
Relative Humidity: 54%
Pressure (altimeter): 29.98 in. Hg (1015 hPa)
Pressure tendency: 0.01 inches (0.5 hPa) higher than three hours ago
ob: KDSM 050254Z 11004KT 8SM SCT250 28/18 A2998 RMK AO2 SLP143 T02780178 53005
cycle: 3

Station Type Date Time Source
KDSM TAF 2020/07/04 18:34 UTC NOAA

TAF KDSM 041731Z 0418/0518 11006KT P6SM SCT050
FM050100 12004KT P6SM FEW060
FM051600 17004KT P6SM FEW050

Example: see airport list